Aguilar, Colorado
Current Conditions -  °F | °C
As of 4:54 PM on Sunday 25 Jan 2015 (Local Time) from KTAD Reporting Station
Clear Clear  
Wind Chill: 42°   Ceiling: Unl
Heat Index: 46°   Visibility: 10mi
Dew Point: 32°   Wind: 8mph
Humidity: 58%   Direction: 160°SSE
Pressure: 30.17"   Gusts: NA
Location:  37.4°N, 104.65°W
Report Text: KTAD 252354Z AUTO 16007KT 10SM CLR 08/00 A3017 RMK AO2 SLP207 T00780000 10117 20067 58001
Loading
Personal Weather Stations






























Interactive Weather Map New forecast layout! Learn more

10-Day Weather Forecast

Advertisements
Track Severe Weather on mobile